sensor_id;sensor_type;location;lat;lon;timestamp;P1;durP1;ratioP1;P2;durP2;ratioP2
10096;SDS011;5087;42.662;23.466;2022-07-29T00:01:53;15.83;;;13.00;;
10096;SDS011;5087;42.662;23.466;2022-07-29T00:04:21;14.27;;;12.57;;
10096;SDS011;5087;42.662;23.466;2022-07-29T00:06:48;15.17;;;13.63;;
10096;SDS011;5087;42.662;23.466;2022-07-29T00:09:15;16.27;;;13.67;;
10096;SDS011;5087;42.662;23.466;2022-07-29T00:11:42;15.57;;;13.77;;
10096;SDS011;5087;42.662;23.466;2022-07-29T00:14:09;17.80;;;14.40;;
10096;SDS011;5087;42.662;23.466;2022-07-29T00:16:38;15.70;;;14.00;;
10096;SDS011;5087;42.662;23.466;2022-07-29T00:19:05;18.13;;;16.03;;
10096;SDS011;5087;42.662;23.466;2022-07-29T00:21:32;21.63;;;15.87;;
10096;SDS011;5087;42.662;23.466;2022-07-29T00:23:59;20.53;;;16.87;;
10096;SDS011;5087;42.662;23.466;2022-07-29T00:26:26;17.57;;;15.67;;
10096;SDS011;5087;42.662;23.466;2022-07-29T00:28:57;17.43;;;15.60;;
10096;SDS011;5087;42.662;23.466;2022-07-29T00:31:24;17.50;;;15.70;;
10096;SDS011;5087;42.662;23.466;2022-07-29T00:33:53;17.93;;;16.03;;
10096;SDS011;5087;42.662;23.466;2022-07-29T00:36:20;18.73;;;16.73;;
10096;SDS011;5087;42.662;23.466;2022-07-29T00:38:47;22.10;;;18.03;;
10096;SDS011;5087;42.662;23.466;2022-07-29T00:41:14;20.13;;;18.03;;
10096;SDS011;5087;42.662;23.466;2022-07-29T00:43:41;21.53;;;18.73;;
10096;SDS011;5087;42.662;23.466;2022-07-29T00:46:09;21.03;;;17.87;;
10096;SDS011;5087;42.662;23.466;2022-07-29T00:48:36;20.63;;;16.73;;
10096;SDS011;5087;42.662;23.466;2022-07-29T00:51:05;21.37;;;17.70;;
10096;SDS011;5087;42.662;23.466;2022-07-29T00:53:35;20.23;;;17.30;;
10096;SDS011;5087;42.662;23.466;2022-07-29T00:56:03;20.33;;;17.47;;
10096;SDS011;5087;42.662;23.466;2022-07-29T00:58:30;17.77;;;15.53;;
10096;SDS011;5087;42.662;23.466;2022-07-29T01:00:58;18.37;;;16.07;;
10096;SDS011;5087;42.662;23.466;2022-07-29T01:03:25;19.53;;;16.00;;
10096;SDS011;5087;42.662;23.466;2022-07-29T01:05:52;19.00;;;16.43;;
10096;SDS011;5087;42.662;23.466;2022-07-29T01:08:22;17.17;;;14.63;;
10096;SDS011;5087;42.662;23.466;2022-07-29T01:10:50;17.77;;;15.07;;
10096;SDS011;5087;42.662;23.466;2022-07-29T01:13:18;19.03;;;15.90;;
10096;SDS011;5087;42.662;23.466;2022-07-29T01:15:47;18.17;;;16.07;;
10096;SDS011;5087;42.662;23.466;2022-07-29T01:18:22;17.87;;;15.70;;
10096;SDS011;5087;42.662;23.466;2022-07-29T01:21:07;17.40;;;14.57;;
10096;SDS011;5087;42.662;23.466;2022-07-29T01:24:02;16.73;;;13.93;;
10096;SDS011;5087;42.662;23.466;2022-07-29T01:26:42;15.70;;;13.90;;
10096;SDS011;5087;42.662;23.466;2022-07-29T01:29:13;16.53;;;14.40;;
10096;SDS011;5087;42.662;23.466;2022-07-29T01:31:46;18.13;;;14.40;;
10096;SDS011;5087;42.662;23.466;2022-07-29T01:34:20;16.00;;;14.13;;
10096;SDS011;5087;42.662;23.466;2022-07-29T01:36:50;17.20;;;14.50;;
10096;SDS011;5087;42.662;23.466;2022-07-29T01:39:23;16.73;;;15.00;;
10096;SDS011;5087;42.662;23.466;2022-07-29T01:41:55;19.47;;;15.83;;
10096;SDS011;5087;42.662;23.466;2022-07-29T01:44:31;18.83;;;15.13;;
10096;SDS011;5087;42.662;23.466;2022-07-29T01:47:05;16.67;;;14.80;;
10096;SDS011;5087;42.662;23.466;2022-07-29T01:49:39;18.50;;;14.87;;
10096;SDS011;5087;42.662;23.466;2022-07-29T01:52:13;19.67;;;16.00;;
10096;SDS011;5087;42.662;23.466;2022-07-29T01:54:46;19.37;;;16.37;;
10096;SDS011;5087;42.662;23.466;2022-07-29T01:57:19;18.90;;;16.97;;
10096;SDS011;5087;42.662;23.466;2022-07-29T01:59:52;18.73;;;16.27;;
10096;SDS011;5087;42.662;23.466;2022-07-29T02:02:21;18.17;;;16.07;;
10096;SDS011;5087;42.662;23.466;2022-07-29T02:04:49;19.10;;;16.83;;
10096;SDS011;5087;42.662;23.466;2022-07-29T02:07:19;19.90;;;17.73;;
10096;SDS011;5087;42.662;23.466;2022-07-29T02:09:49;21.53;;;18.00;;
10096;SDS011;5087;42.662;23.466;2022-07-29T02:12:17;19.93;;;17.83;;
10096;SDS011;5087;42.662;23.466;2022-07-29T02:14:46;21.07;;;18.60;;
10096;SDS011;5087;42.662;23.466;2022-07-29T02:17:17;27.53;;;18.93;;
10096;SDS011;5087;42.662;23.466;2022-07-29T02:19:48;21.77;;;18.63;;
10096;SDS011;5087;42.662;23.466;2022-07-29T02:22:16;21.50;;;17.40;;
10096;SDS011;5087;42.662;23.466;2022-07-29T02:24:46;22.20;;;18.23;;
10096;SDS011;5087;42.662;23.466;2022-07-29T02:27:15;23.63;;;19.33;;
10096;SDS011;5087;42.662;23.466;2022-07-29T02:29:45;22.53;;;17.80;;
10096;SDS011;5087;42.662;23.466;2022-07-29T02:32:16;23.43;;;18.23;;
10096;SDS011;5087;42.662;23.466;2022-07-29T02:34:45;23.33;;;18.33;;
10096;SDS011;5087;42.662;23.466;2022-07-29T02:37:13;21.17;;;16.73;;
10096;SDS011;5087;42.662;23.466;2022-07-29T02:39:43;21.47;;;17.23;;
10096;SDS011;5087;42.662;23.466;2022-07-29T02:42:13;19.70;;;17.27;;
10096;SDS011;5087;42.662;23.466;2022-07-29T02:44:42;19.30;;;16.50;;
10096;SDS011;5087;42.662;23.466;2022-07-29T02:47:11;18.77;;;16.77;;
10096;SDS011;5087;42.662;23.466;2022-07-29T02:49:47;18.10;;;16.00;;
10096;SDS011;5087;42.662;23.466;2022-07-29T02:52:20;20.20;;;16.37;;
10096;SDS011;5087;42.662;23.466;2022-07-29T02:54:53;21.27;;;16.50;;
10096;SDS011;5087;42.662;23.466;2022-07-29T02:57:28;21.13;;;17.13;;
10096;SDS011;5087;42.662;23.466;2022-07-29T02:59:58;18.93;;;16.90;;
10096;SDS011;5087;42.662;23.466;2022-07-29T03:02:30;19.30;;;16.83;;
10096;SDS011;5087;42.662;23.466;2022-07-29T03:05:02;18.40;;;16.50;;
10096;SDS011;5087;42.662;23.466;2022-07-29T03:07:30;20.27;;;17.20;;
10096;SDS011;5087;42.662;23.466;2022-07-29T03:09:59;18.93;;;16.77;;
10096;SDS011;5087;42.662;23.466;2022-07-29T03:12:26;19.80;;;17.07;;
10096;SDS011;5087;42.662;23.466;2022-07-29T03:14:56;18.57;;;16.57;;
10096;SDS011;5087;42.662;23.466;2022-07-29T03:17:24;20.03;;;16.80;;
10096;SDS011;5087;42.662;23.466;2022-07-29T03:19:51;17.73;;;15.13;;
10096;SDS011;5087;42.662;23.466;2022-07-29T03:22:20;18.73;;;16.43;;
10096;SDS011;5087;42.662;23.466;2022-07-29T03:24:47;17.80;;;15.87;;
10096;SDS011;5087;42.662;23.466;2022-07-29T03:27:14;17.83;;;15.93;;
10096;SDS011;5087;42.662;23.466;2022-07-29T03:29:42;23.13;;;16.93;;
10096;SDS011;5087;42.662;23.466;2022-07-29T03:32:09;21.03;;;17.20;;
10096;SDS011;5087;42.662;23.466;2022-07-29T03:34:36;19.40;;;16.37;;
10096;SDS011;5087;42.662;23.466;2022-07-29T03:37:04;17.77;;;15.63;;
10096;SDS011;5087;42.662;23.466;2022-07-29T03:39:36;19.30;;;16.30;;
10096;SDS011;5087;42.662;23.466;2022-07-29T03:42:07;21.20;;;16.70;;
10096;SDS011;5087;42.662;23.466;2022-07-29T03:44:37;20.23;;;17.67;;
10096;SDS011;5087;42.662;23.466;2022-07-29T03:47:07;20.27;;;15.90;;
10096;SDS011;5087;42.662;23.466;2022-07-29T03:49:36;18.57;;;16.60;;
10096;SDS011;5087;42.662;23.466;2022-07-29T03:52:05;19.43;;;16.50;;
10096;SDS011;5087;42.662;23.466;2022-07-29T03:54:33;18.13;;;15.87;;
10096;SDS011;5087;42.662;23.466;2022-07-29T03:57:02;17.07;;;14.30;;
10096;SDS011;5087;42.662;23.466;2022-07-29T03:59:32;16.97;;;14.57;;
10096;SDS011;5087;42.662;23.466;2022-07-29T04:02:00;16.90;;;15.17;;
10096;SDS011;5087;42.662;23.466;2022-07-29T04:04:31;16.93;;;14.53;;
10096;SDS011;5087;42.662;23.466;2022-07-29T04:07:00;20.50;;;15.73;;
10096;SDS011;5087;42.662;23.466;2022-07-29T04:09:27;19.80;;;14.67;;
10096;SDS011;5087;42.662;23.466;2022-07-29T04:11:54;14.30;;;12.47;;
10096;SDS011;5087;42.662;23.466;2022-07-29T04:14:22;13.80;;;11.57;;
10096;SDS011;5087;42.662;23.466;2022-07-29T04:16:50;12.67;;;11.37;;
10096;SDS011;5087;42.662;23.466;2022-07-29T04:19:18;17.13;;;12.43;;
10096;SDS011;5087;42.662;23.466;2022-07-29T04:21:45;15.47;;;13.20;;
10096;SDS011;5087;42.662;23.466;2022-07-29T04:24:12;13.23;;;11.90;;
10096;SDS011;5087;42.662;23.466;2022-07-29T04:26:39;14.23;;;12.60;;
10096;SDS011;5087;42.662;23.466;2022-07-29T04:29:06;14.03;;;12.33;;
10096;SDS011;5087;42.662;23.466;2022-07-29T04:31:35;17.30;;;13.73;;
10096;SDS011;5087;42.662;23.466;2022-07-29T04:34:02;16.10;;;13.37;;
10096;SDS011;5087;42.662;23.466;2022-07-29T04:36:29;14.30;;;12.80;;
10096;SDS011;5087;42.662;23.466;2022-07-29T04:38:56;14.47;;;12.90;;
10096;SDS011;5087;42.662;23.466;2022-07-29T04:41:23;14.53;;;13.03;;
10096;SDS011;5087;42.662;23.466;2022-07-29T04:43:50;14.90;;;13.23;;
10096;SDS011;5087;42.662;23.466;2022-07-29T04:46:18;14.77;;;13.27;;
10096;SDS011;5087;42.662;23.466;2022-07-29T04:48:46;14.93;;;11.37;;
10096;SDS011;5087;42.662;23.466;2022-07-29T04:51:14;12.17;;;11.07;;
10096;SDS011;5087;42.662;23.466;2022-07-29T04:53:42;11.43;;;10.33;;
10096;SDS011;5087;42.662;23.466;2022-07-29T04:56:09;9.63;;;8.67;;
10096;SDS011;5087;42.662;23.466;2022-07-29T04:58:36;9.00;;;8.10;;
10096;SDS011;5087;42.662;23.466;2022-07-29T05:01:03;10.00;;;8.57;;
10096;SDS011;5087;42.662;23.466;2022-07-29T05:03:31;10.47;;;9.23;;
10096;SDS011;5087;42.662;23.466;2022-07-29T05:05:59;10.07;;;9.07;;
10096;SDS011;5087;42.662;23.466;2022-07-29T05:08:26;10.10;;;9.13;;
10096;SDS011;5087;42.662;23.466;2022-07-29T05:10:53;10.20;;;9.17;;
10096;SDS011;5087;42.662;23.466;2022-07-29T05:13:20;9.77;;;8.90;;
10096;SDS011;5087;42.662;23.466;2022-07-29T05:15:48;10.30;;;9.30;;
10096;SDS011;5087;42.662;23.466;2022-07-29T05:18:15;10.00;;;9.00;;
10096;SDS011;5087;42.662;23.466;2022-07-29T05:20:42;9.73;;;8.87;;
10096;SDS011;5087;42.662;23.466;2022-07-29T05:23:11;9.10;;;8.30;;
10096;SDS011;5087;42.662;23.466;2022-07-29T05:25:39;9.80;;;8.90;;
10096;SDS011;5087;42.662;23.466;2022-07-29T05:28:07;9.67;;;8.77;;
10096;SDS011;5087;42.662;23.466;2022-07-29T05:30:34;9.07;;;8.23;;
10096;SDS011;5087;42.662;23.466;2022-07-29T05:33:01;9.17;;;8.37;;
10096;SDS011;5087;42.662;23.466;2022-07-29T05:35:28;10.17;;;9.17;;
10096;SDS011;5087;42.662;23.466;2022-07-29T05:37:55;10.50;;;8.80;;
10096;SDS011;5087;42.662;23.466;2022-07-29T05:40:24;8.87;;;8.07;;
10096;SDS011;5087;42.662;23.466;2022-07-29T05:42:51;10.33;;;9.33;;
10096;SDS011;5087;42.662;23.466;2022-07-29T05:45:18;10.23;;;9.27;;
10096;SDS011;5087;42.662;23.466;2022-07-29T05:47:45;9.40;;;8.67;;
10096;SDS011;5087;42.662;23.466;2022-07-29T05:50:12;9.50;;;8.60;;
10096;SDS011;5087;42.662;23.466;2022-07-29T05:52:39;9.83;;;9.13;;
10096;SDS011;5087;42.662;23.466;2022-07-29T05:55:07;9.27;;;8.50;;
10096;SDS011;5087;42.662;23.466;2022-07-29T05:57:36;9.93;;;9.13;;
10096;SDS011;5087;42.662;23.466;2022-07-29T06:00:03;8.00;;;7.50;;
10096;SDS011;5087;42.662;23.466;2022-07-29T06:02:37;8.57;;;7.97;;
10096;SDS011;5087;42.662;23.466;2022-07-29T06:05:05;9.10;;;8.37;;
10096;SDS011;5087;42.662;23.466;2022-07-29T06:07:33;8.90;;;8.30;;
10096;SDS011;5087;42.662;23.466;2022-07-29T06:10:00;9.27;;;8.47;;
10096;SDS011;5087;42.662;23.466;2022-07-29T06:12:27;8.90;;;8.30;;
10096;SDS011;5087;42.662;23.466;2022-07-29T06:14:56;8.60;;;8.10;;
10096;SDS011;5087;42.662;23.466;2022-07-29T06:17:23;9.13;;;8.33;;
10096;SDS011;5087;42.662;23.466;2022-07-29T06:19:50;9.67;;;9.07;;
10096;SDS011;5087;42.662;23.466;2022-07-29T06:22:17;9.20;;;8.50;;
10096;SDS011;5087;42.662;23.466;2022-07-29T06:24:44;9.17;;;8.47;;
10096;SDS011;5087;42.662;23.466;2022-07-29T06:27:12;9.13;;;8.33;;
10096;SDS011;5087;42.662;23.466;2022-07-29T06:29:39;8.80;;;8.00;;
10096;SDS011;5087;42.662;23.466;2022-07-29T06:32:11;8.87;;;8.20;;
10096;SDS011;5087;42.662;23.466;2022-07-29T06:34:38;7.87;;;7.47;;
10096;SDS011;5087;42.662;23.466;2022-07-29T06:37:05;8.20;;;7.70;;
10096;SDS011;5087;42.662;23.466;2022-07-29T06:39:33;7.20;;;6.80;;
10096;SDS011;5087;42.662;23.466;2022-07-29T06:42:01;7.60;;;7.00;;
10096;SDS011;5087;42.662;23.466;2022-07-29T06:44:30;7.27;;;6.87;;
10096;SDS011;5087;42.662;23.466;2022-07-29T06:46:59;7.37;;;6.87;;
10096;SDS011;5087;42.662;23.466;2022-07-29T06:49:27;7.63;;;7.23;;
10096;SDS011;5087;42.662;23.466;2022-07-29T06:51:55;7.87;;;7.47;;
10096;SDS011;5087;42.662;23.466;2022-07-29T06:54:22;8.03;;;7.43;;
10096;SDS011;5087;42.662;23.466;2022-07-29T06:56:49;7.90;;;7.50;;
10096;SDS011;5087;42.662;23.466;2022-07-29T06:59:16;7.27;;;6.97;;
10096;SDS011;5087;42.662;23.466;2022-07-29T07:01:43;7.73;;;7.33;;
10096;SDS011;5087;42.662;23.466;2022-07-29T07:04:11;7.20;;;6.80;;
10096;SDS011;5087;42.662;23.466;2022-07-29T07:06:40;7.90;;;7.50;;
10096;SDS011;5087;42.662;23.466;2022-07-29T07:09:07;8.37;;;7.67;;
10096;SDS011;5087;42.662;23.466;2022-07-29T07:11:34;7.47;;;7.10;;
10096;SDS011;5087;42.662;23.466;2022-07-29T07:14:02;8.23;;;7.53;;
10096;SDS011;5087;42.662;23.466;2022-07-29T07:16:29;7.70;;;7.30;;
10096;SDS011;5087;42.662;23.466;2022-07-29T07:18:57;7.70;;;7.30;;
10096;SDS011;5087;42.662;23.466;2022-07-29T07:21:24;8.33;;;7.83;;
10096;SDS011;5087;42.662;23.466;2022-07-29T07:23:53;7.80;;;7.30;;
10096;SDS011;5087;42.662;23.466;2022-07-29T07:26:20;8.10;;;7.70;;
10096;SDS011;5087;42.662;23.466;2022-07-29T07:28:47;8.43;;;7.83;;
10096;SDS011;5087;42.662;23.466;2022-07-29T07:31:15;8.13;;;7.73;;
10096;SDS011;5087;42.662;23.466;2022-07-29T07:33:42;8.20;;;7.60;;
10096;SDS011;5087;42.662;23.466;2022-07-29T07:36:10;7.77;;;7.37;;
10096;SDS011;5087;42.662;23.466;2022-07-29T07:38:37;6.60;;;6.30;;
10096;SDS011;5087;42.662;23.466;2022-07-29T07:41:05;7.07;;;6.67;;
10096;SDS011;5087;42.662;23.466;2022-07-29T07:43:33;7.70;;;7.30;;
10096;SDS011;5087;42.662;23.466;2022-07-29T07:46:00;6.80;;;6.50;;
10096;SDS011;5087;42.662;23.466;2022-07-29T07:48:27;7.53;;;7.10;;
10096;SDS011;5087;42.662;23.466;2022-07-29T07:50:54;7.50;;;7.10;;
10096;SDS011;5087;42.662;23.466;2022-07-29T07:53:22;7.40;;;7.00;;
10096;SDS011;5087;42.662;23.466;2022-07-29T07:55:49;7.23;;;6.83;;
10096;SDS011;5087;42.662;23.466;2022-07-29T07:58:18;7.30;;;7.00;;
10096;SDS011;5087;42.662;23.466;2022-07-29T08:00:45;7.70;;;7.30;;
10096;SDS011;5087;42.662;23.466;2022-07-29T08:03:13;7.87;;;7.47;;
10096;SDS011;5087;42.662;23.466;2022-07-29T08:05:40;8.07;;;7.47;;
10096;SDS011;5087;42.662;23.466;2022-07-29T08:08:07;6.90;;;6.60;;
10096;SDS011;5087;42.662;23.466;2022-07-29T08:10:34;7.80;;;7.40;;
10096;SDS011;5087;42.662;23.466;2022-07-29T08:13:23;7.43;;;7.03;;
10096;SDS011;5087;42.662;23.466;2022-07-29T08:15:53;7.53;;;7.03;;
10096;SDS011;5087;42.662;23.466;2022-07-29T08:18:24;7.00;;;6.70;;
10096;SDS011;5087;42.662;23.466;2022-07-29T08:20:52;6.77;;;6.27;;
10096;SDS011;5087;42.662;23.466;2022-07-29T08:23:20;7.40;;;7.10;;
10096;SDS011;5087;42.662;23.466;2022-07-29T08:25:48;7.57;;;7.03;;
10096;SDS011;5087;42.662;23.466;2022-07-29T08:28:15;7.33;;;7.03;;
10096;SDS011;5087;42.662;23.466;2022-07-29T08:30:44;6.93;;;6.63;;
10096;SDS011;5087;42.662;23.466;2022-07-29T08:33:11;6.00;;;5.53;;
10096;SDS011;5087;42.662;23.466;2022-07-29T08:35:39;7.17;;;6.67;;
10096;SDS011;5087;42.662;23.466;2022-07-29T08:38:06;6.93;;;6.63;;
10096;SDS011;5087;42.662;23.466;2022-07-29T08:40:34;6.27;;;5.90;;
10096;SDS011;5087;42.662;23.466;2022-07-29T08:43:05;5.40;;;5.10;;
10096;SDS011;5087;42.662;23.466;2022-07-29T08:45:36;5.40;;;5.20;;
10096;SDS011;5087;42.662;23.466;2022-07-29T08:48:11;5.73;;;5.43;;
10096;SDS011;5087;42.662;23.466;2022-07-29T08:50:39;6.10;;;5.80;;
10096;SDS011;5087;42.662;23.466;2022-07-29T08:53:10;5.37;;;5.03;;
10096;SDS011;5087;42.662;23.466;2022-07-29T08:55:39;5.10;;;4.90;;
10096;SDS011;5087;42.662;23.466;2022-07-29T08:58:07;5.40;;;5.07;;
10096;SDS011;5087;42.662;23.466;2022-07-29T09:00:36;4.53;;;4.43;;
10096;SDS011;5087;42.662;23.466;2022-07-29T09:03:07;5.70;;;5.30;;
10096;SDS011;5087;42.662;23.466;2022-07-29T09:05:37;5.67;;;5.27;;
10096;SDS011;5087;42.662;23.466;2022-07-29T09:08:08;6.30;;;6.00;;
10096;SDS011;5087;42.662;23.466;2022-07-29T09:10:36;7.87;;;6.27;;
10096;SDS011;5087;42.662;23.466;2022-07-29T09:13:03;6.43;;;6.03;;
10096;SDS011;5087;42.662;23.466;2022-07-29T09:15:31;5.27;;;5.07;;
10096;SDS011;5087;42.662;23.466;2022-07-29T09:17:58;6.63;;;6.33;;
10096;SDS011;5087;42.662;23.466;2022-07-29T09:20:26;6.07;;;5.67;;
10096;SDS011;5087;42.662;23.466;2022-07-29T09:23:16;5.00;;;4.80;;
10096;SDS011;5087;42.662;23.466;2022-07-29T09:25:43;5.57;;;5.20;;
10096;SDS011;5087;42.662;23.466;2022-07-29T09:28:12;7.80;;;5.00;;
10096;SDS011;5087;42.662;23.466;2022-07-29T09:30:49;5.40;;;4.90;;
10096;SDS011;5087;42.662;23.466;2022-07-29T09:33:18;5.13;;;4.83;;
10096;SDS011;5087;42.662;23.466;2022-07-29T09:35:57;5.10;;;4.90;;
10096;SDS011;5087;42.662;23.466;2022-07-29T09:38:27;4.60;;;4.43;;
10096;SDS011;5087;42.662;23.466;2022-07-29T09:40:58;4.57;;;4.33;;
10096;SDS011;5087;42.662;23.466;2022-07-29T09:43:27;4.17;;;3.87;;
10096;SDS011;5087;42.662;23.466;2022-07-29T09:45:54;4.67;;;4.47;;
10096;SDS011;5087;42.662;23.466;2022-07-29T09:48:23;4.20;;;4.00;;
10096;SDS011;5087;42.662;23.466;2022-07-29T09:50:51;4.70;;;4.50;;
10096;SDS011;5087;42.662;23.466;2022-07-29T09:53:32;4.60;;;4.40;;
10096;SDS011;5087;42.662;23.466;2022-07-29T09:56:01;4.83;;;4.47;;
10096;SDS011;5087;42.662;23.466;2022-07-29T09:58:28;4.60;;;4.30;;
10096;SDS011;5087;42.662;23.466;2022-07-29T10:00:56;4.63;;;4.30;;
10096;SDS011;5087;42.662;23.466;2022-07-29T10:03:23;3.57;;;3.47;;
10096;SDS011;5087;42.662;23.466;2022-07-29T10:06:07;4.33;;;4.10;;
10096;SDS011;5087;42.662;23.466;2022-07-29T10:08:37;4.23;;;4.03;;
10096;SDS011;5087;42.662;23.466;2022-07-29T10:11:14;3.83;;;3.53;;
10096;SDS011;5087;42.662;23.466;2022-07-29T10:13:43;4.23;;;3.97;;
10096;SDS011;5087;42.662;23.466;2022-07-29T10:16:12;4.20;;;4.00;;
10096;SDS011;5087;42.662;23.466;2022-07-29T10:18:41;4.10;;;3.90;;
10096;SDS011;5087;42.662;23.466;2022-07-29T10:21:10;4.60;;;4.30;;
10096;SDS011;5087;42.662;23.466;2022-07-29T10:23:38;3.93;;;3.70;;
10096;SDS011;5087;42.662;23.466;2022-07-29T10:26:07;4.17;;;3.87;;
10096;SDS011;5087;42.662;23.466;2022-07-29T10:28:36;4.00;;;3.87;;
10096;SDS011;5087;42.662;23.466;2022-07-29T10:31:05;4.27;;;4.07;;
10096;SDS011;5087;42.662;23.466;2022-07-29T10:33:39;5.00;;;4.60;;
10096;SDS011;5087;42.662;23.466;2022-07-29T10:36:24;4.97;;;4.67;;
10096;SDS011;5087;42.662;23.466;2022-07-29T10:39:08;4.57;;;4.37;;
10096;SDS011;5087;42.662;23.466;2022-07-29T10:42:00;4.63;;;4.43;;
10096;SDS011;5087;42.662;23.466;2022-07-29T10:44:39;4.90;;;4.60;;
10096;SDS011;5087;42.662;23.466;2022-07-29T10:47:08;5.20;;;4.90;;
10096;SDS011;5087;42.662;23.466;2022-07-29T10:49:54;5.17;;;4.87;;
10096;SDS011;5087;42.662;23.466;2022-07-29T10:52:23;4.83;;;4.53;;
10096;SDS011;5087;42.662;23.466;2022-07-29T10:54:54;5.10;;;4.90;;
10096;SDS011;5087;42.662;23.466;2022-07-29T10:57:24;5.50;;;5.10;;
10096;SDS011;5087;42.662;23.466;2022-07-29T11:02:52;4.63;;;4.33;;
10096;SDS011;5087;42.662;23.466;2022-07-29T11:05:21;8.00;;;5.23;;
10096;SDS011;5087;42.662;23.466;2022-07-29T11:10:50;5.40;;;4.93;;
10096;SDS011;5087;42.662;23.466;2022-07-29T11:16:17;5.10;;;4.80;;
10096;SDS011;5087;42.662;23.466;2022-07-29T11:21:45;6.40;;;5.80;;
10096;SDS011;5087;42.662;23.466;2022-07-29T11:24:16;5.60;;;5.20;;
10096;SDS011;5087;42.662;23.466;2022-07-29T11:31:02;4.57;;;4.27;;
10096;SDS011;5087;42.662;23.466;2022-07-29T11:33:35;5.00;;;4.70;;
10096;SDS011;5087;42.662;23.466;2022-07-29T11:36:38;5.20;;;4.90;;
10096;SDS011;5087;42.662;23.466;2022-07-29T11:42:58;4.87;;;4.60;;
10096;SDS011;5087;42.662;23.466;2022-07-29T11:45:53;6.10;;;5.60;;
10096;SDS011;5087;42.662;23.466;2022-07-29T11:51:56;5.27;;;4.97;;
10096;SDS011;5087;42.662;23.466;2022-07-29T11:54:36;5.07;;;4.77;;
10096;SDS011;5087;42.662;23.466;2022-07-29T11:57:09;5.63;;;5.23;;
10096;SDS011;5087;42.662;23.466;2022-07-29T12:00:05;5.50;;;5.10;;
10096;SDS011;5087;42.662;23.466;2022-07-29T12:02:53;6.07;;;5.50;;
10096;SDS011;5087;42.662;23.466;2022-07-29T12:05:47;5.53;;;5.23;;
10096;SDS011;5087;42.662;23.466;2022-07-29T12:09:06;5.30;;;5.00;;
10096;SDS011;5087;42.662;23.466;2022-07-29T12:14:36;6.10;;;5.50;;
10096;SDS011;5087;42.662;23.466;2022-07-29T12:17:41;5.97;;;5.47;;
10096;SDS011;5087;42.662;23.466;2022-07-29T12:20:56;4.90;;;4.70;;
10096;SDS011;5087;42.662;23.466;2022-07-29T12:23:36;5.90;;;5.50;;
10096;SDS011;5087;42.662;23.466;2022-07-29T12:26:34;5.33;;;5.03;;
10096;SDS011;5087;42.662;23.466;2022-07-29T12:29:14;5.90;;;5.60;;
10096;SDS011;5087;42.662;23.466;2022-07-29T12:31:43;6.10;;;5.80;;
10096;SDS011;5087;42.662;23.466;2022-07-29T12:34:12;6.10;;;5.70;;
10096;SDS011;5087;42.662;23.466;2022-07-29T12:36:44;5.80;;;5.40;;
10096;SDS011;5087;42.662;23.466;2022-07-29T12:39:17;6.13;;;5.73;;
10096;SDS011;5087;42.662;23.466;2022-07-29T12:41:46;5.47;;;5.17;;
10096;SDS011;5087;42.662;23.466;2022-07-29T12:44:14;5.43;;;5.13;;
10096;SDS011;5087;42.662;23.466;2022-07-29T12:46:41;5.27;;;4.90;;
10096;SDS011;5087;42.662;23.466;2022-07-29T12:49:15;5.43;;;5.13;;
10096;SDS011;5087;42.662;23.466;2022-07-29T12:51:48;5.90;;;5.50;;
10096;SDS011;5087;42.662;23.466;2022-07-29T12:54:15;5.53;;;5.20;;
10096;SDS011;5087;42.662;23.466;2022-07-29T12:56:43;6.10;;;5.50;;
10096;SDS011;5087;42.662;23.466;2022-07-29T12:59:13;5.90;;;5.50;;
10096;SDS011;5087;42.662;23.466;2022-07-29T13:01:42;6.00;;;4.80;;
10096;SDS011;5087;42.662;23.466;2022-07-29T13:04:10;5.80;;;5.40;;
10096;SDS011;5087;42.662;23.466;2022-07-29T13:06:39;6.33;;;5.93;;
10096;SDS011;5087;42.662;23.466;2022-07-29T13:09:08;5.23;;;4.93;;
10096;SDS011;5087;42.662;23.466;2022-07-29T13:11:39;5.90;;;5.50;;
10096;SDS011;5087;42.662;23.466;2022-07-29T13:14:08;5.63;;;5.30;;
10096;SDS011;5087;42.662;23.466;2022-07-29T13:19:33;5.83;;;5.40;;
10096;SDS011;5087;42.662;23.466;2022-07-29T13:22:02;6.63;;;6.20;;
10096;SDS011;5087;42.662;23.466;2022-07-29T13:24:30;6.23;;;5.87;;
10096;SDS011;5087;42.662;23.466;2022-07-29T13:26:57;5.83;;;5.33;;
10096;SDS011;5087;42.662;23.466;2022-07-29T13:29:24;6.60;;;6.00;;
10096;SDS011;5087;42.662;23.466;2022-07-29T13:31:54;6.07;;;5.60;;
10096;SDS011;5087;42.662;23.466;2022-07-29T13:34:21;6.30;;;5.83;;
10096;SDS011;5087;42.662;23.466;2022-07-29T13:36:49;6.40;;;5.90;;
10096;SDS011;5087;42.662;23.466;2022-07-29T13:39:17;6.40;;;5.90;;
10096;SDS011;5087;42.662;23.466;2022-07-29T13:41:44;6.23;;;5.80;;
10096;SDS011;5087;42.662;23.466;2022-07-29T13:44:11;7.00;;;6.40;;
10096;SDS011;5087;42.662;23.466;2022-07-29T13:46:38;6.27;;;5.77;;
10096;SDS011;5087;42.662;23.466;2022-07-29T13:49:07;6.70;;;6.20;;
10096;SDS011;5087;42.662;23.466;2022-07-29T13:51:36;6.73;;;6.13;;
10096;SDS011;5087;42.662;23.466;2022-07-29T13:54:04;6.33;;;5.93;;
10096;SDS011;5087;42.662;23.466;2022-07-29T13:56:31;6.23;;;5.73;;
10096;SDS011;5087;42.662;23.466;2022-07-29T13:58:59;6.90;;;6.40;;
10096;SDS011;5087;42.662;23.466;2022-07-29T14:01:33;6.93;;;6.23;;
10096;SDS011;5087;42.662;23.466;2022-07-29T14:04:01;6.10;;;5.70;;
10096;SDS011;5087;42.662;23.466;2022-07-29T14:06:30;6.27;;;5.83;;
10096;SDS011;5087;42.662;23.466;2022-07-29T14:08:57;6.80;;;6.30;;
10096;SDS011;5087;42.662;23.466;2022-07-29T14:11:25;6.57;;;6.17;;
10096;SDS011;5087;42.662;23.466;2022-07-29T14:13:52;6.33;;;5.83;;
10096;SDS011;5087;42.662;23.466;2022-07-29T14:19:11;7.47;;;6.93;;
10096;SDS011;5087;42.662;23.466;2022-07-29T14:21:39;6.57;;;5.80;;
10096;SDS011;5087;42.662;23.466;2022-07-29T14:24:06;6.80;;;6.37;;
10096;SDS011;5087;42.662;23.466;2022-07-29T14:26:34;6.13;;;5.73;;
10096;SDS011;5087;42.662;23.466;2022-07-29T14:29:01;6.10;;;5.63;;
10096;SDS011;5087;42.662;23.466;2022-07-29T14:31:28;6.17;;;5.77;;
10096;SDS011;5087;42.662;23.466;2022-07-29T14:33:55;6.00;;;5.60;;
10096;SDS011;5087;42.662;23.466;2022-07-29T14:36:22;5.60;;;5.30;;
10096;SDS011;5087;42.662;23.466;2022-07-29T14:38:51;6.37;;;5.87;;
10096;SDS011;5087;42.662;23.466;2022-07-29T14:41:18;5.50;;;5.10;;
10096;SDS011;5087;42.662;23.466;2022-07-29T14:43:46;5.33;;;5.03;;
10096;SDS011;5087;42.662;23.466;2022-07-29T14:46:13;5.90;;;5.50;;
10096;SDS011;5087;42.662;23.466;2022-07-29T14:48:41;5.70;;;5.40;;
10096;SDS011;5087;42.662;23.466;2022-07-29T14:51:08;5.40;;;4.93;;
10096;SDS011;5087;42.662;23.466;2022-07-29T14:53:35;5.57;;;5.07;;
10096;SDS011;5087;42.662;23.466;2022-07-29T14:56:04;6.13;;;5.70;;
10096;SDS011;5087;42.662;23.466;2022-07-29T14:58:31;6.40;;;5.80;;
10096;SDS011;5087;42.662;23.466;2022-07-29T15:00:58;5.93;;;5.47;;
10096;SDS011;5087;42.662;23.466;2022-07-29T15:03:26;5.70;;;5.30;;
10096;SDS011;5087;42.662;23.466;2022-07-29T15:05:53;6.07;;;5.67;;
10096;SDS011;5087;42.662;23.466;2022-07-29T15:08:21;6.07;;;5.57;;
10096;SDS011;5087;42.662;23.466;2022-07-29T15:10:48;5.40;;;5.10;;
10096;SDS011;5087;42.662;23.466;2022-07-29T15:13:17;5.57;;;5.17;;
10096;SDS011;5087;42.662;23.466;2022-07-29T15:15:44;6.10;;;5.60;;
10096;SDS011;5087;42.662;23.466;2022-07-29T15:18:11;5.57;;;5.27;;
10096;SDS011;5087;42.662;23.466;2022-07-29T15:20:38;5.27;;;4.97;;
10096;SDS011;5087;42.662;23.466;2022-07-29T15:23:05;5.40;;;5.03;;
10096;SDS011;5087;42.662;23.466;2022-07-29T15:25:34;5.40;;;5.00;;
10096;SDS011;5087;42.662;23.466;2022-07-29T15:28:02;5.20;;;4.90;;